sensor_id;sensor_type;location;lat;lon;timestamp;temperature;humidity
38568;DHT22;24338;48.280;10.970;2023-05-02T00:02:19;8.80;99.90
38568;DHT22;24338;48.280;10.970;2023-05-02T00:04:46;8.80;99.90
38568;DHT22;24338;48.280;10.970;2023-05-02T00:07:16;8.70;99.90
38568;DHT22;24338;48.280;10.970;2023-05-02T00:09:42;8.70;99.90
38568;DHT22;24338;48.280;10.970;2023-05-02T00:12:09;8.60;99.90
38568;DHT22;24338;48.280;10.970;2023-05-02T00:14:39;8.60;99.90
38568;DHT22;24338;48.280;10.970;2023-05-02T00:17:06;8.60;99.90
38568;DHT22;24338;48.280;10.970;2023-05-02T00:19:37;8.60;99.90
38568;DHT22;24338;48.280;10.970;2023-05-02T00:22:12;8.60;99.90
38568;DHT22;24338;48.280;10.970;2023-05-02T00:24:39;8.60;99.90
38568;DHT22;24338;48.280;10.970;2023-05-02T00:29:34;8.60;99.90
38568;DHT22;24338;48.280;10.970;2023-05-02T00:32:06;8.50;99.90
38568;DHT22;24338;48.280;10.970;2023-05-02T00:34:33;8.50;99.90
38568;DHT22;24338;48.280;10.970;2023-05-02T00:37:00;8.50;99.90
38568;DHT22;24338;48.280;10.970;2023-05-02T00:39:27;8.40;99.90
38568;DHT22;24338;48.280;10.970;2023-05-02T00:41:57;8.40;99.90
38568;DHT22;24338;48.280;10.970;2023-05-02T00:44:24;8.40;99.90
38568;DHT22;24338;48.280;10.970;2023-05-02T00:46:52;8.30;99.90
38568;DHT22;24338;48.280;10.970;2023-05-02T00:49:19;8.30;99.90
38568;DHT22;24338;48.280;10.970;2023-05-02T00:51:48;8.30;99.90
38568;DHT22;24338;48.280;10.970;2023-05-02T00:54:15;8.20;99.90
38568;DHT22;24338;48.280;10.970;2023-05-02T00:56:44;8.20;99.90
38568;DHT22;24338;48.280;10.970;2023-05-02T00:59:12;8.20;99.90
38568;DHT22;24338;48.280;10.970;2023-05-02T01:01:54;8.20;99.90
38568;DHT22;24338;48.280;10.970;2023-05-02T01:04:39;8.10;99.90
38568;DHT22;24338;48.280;10.970;2023-05-02T01:12:42;8.10;99.90
38568;DHT22;24338;48.280;10.970;2023-05-02T01:15:15;8.00;99.90
38568;DHT22;24338;48.280;10.970;2023-05-02T01:17:47;8.00;99.90
38568;DHT22;24338;48.280;10.970;2023-05-02T01:20:19;8.00;99.90
38568;DHT22;24338;48.280;10.970;2023-05-02T01:22:47;8.00;99.90
38568;DHT22;24338;48.280;10.970;2023-05-02T01:31:10;7.90;99.90
38568;DHT22;24338;48.280;10.970;2023-05-02T01:33:38;7.90;99.90
38568;DHT22;24338;48.280;10.970;2023-05-02T01:36:06;7.80;99.90
38568;DHT22;24338;48.280;10.970;2023-05-02T01:38:34;7.80;99.90
38568;DHT22;24338;48.280;10.970;2023-05-02T01:41:03;7.70;99.90
38568;DHT22;24338;48.280;10.970;2023-05-02T01:43:34;7.80;99.90
38568;DHT22;24338;48.280;10.970;2023-05-02T01:46:04;7.70;99.90
38568;DHT22;24338;48.280;10.970;2023-05-02T01:48:31;7.70;99.90
38568;DHT22;24338;48.280;10.970;2023-05-02T01:50:59;7.60;99.90
38568;DHT22;24338;48.280;10.970;2023-05-02T01:53:29;7.60;99.90
38568;DHT22;24338;48.280;10.970;2023-05-02T01:55:59;7.60;99.90
38568;DHT22;24338;48.280;10.970;2023-05-02T01:58:28;7.50;99.90
38568;DHT22;24338;48.280;10.970;2023-05-02T02:00:58;7.50;99.90
38568;DHT22;24338;48.280;10.970;2023-05-02T02:03:29;7.50;99.90
38568;DHT22;24338;48.280;10.970;2023-05-02T02:05:57;7.50;99.90
38568;DHT22;24338;48.280;10.970;2023-05-02T02:08:27;7.50;99.90
38568;DHT22;24338;48.280;10.970;2023-05-02T02:10:59;7.60;99.90
38568;DHT22;24338;48.280;10.970;2023-05-02T02:13:34;7.60;99.90
38568;DHT22;24338;48.280;10.970;2023-05-02T02:16:03;7.60;99.90
38568;DHT22;24338;48.280;10.970;2023-05-02T02:18:36;7.60;99.90
38568;DHT22;24338;48.280;10.970;2023-05-02T02:21:10;7.60;99.90
38568;DHT22;24338;48.280;10.970;2023-05-02T02:23:42;7.50;99.90
38568;DHT22;24338;48.280;10.970;2023-05-02T02:26:09;7.50;99.90
38568;DHT22;24338;48.280;10.970;2023-05-02T02:28:38;7.50;99.90
38568;DHT22;24338;48.280;10.970;2023-05-02T02:31:05;7.50;99.90
38568;DHT22;24338;48.280;10.970;2023-05-02T02:33:34;7.50;99.90
38568;DHT22;24338;48.280;10.970;2023-05-02T02:36:11;7.50;99.90
38568;DHT22;24338;48.280;10.970;2023-05-02T02:38:45;7.50;99.90
38568;DHT22;24338;48.280;10.970;2023-05-02T02:41:21;7.50;99.90
38568;DHT22;24338;48.280;10.970;2023-05-02T02:44:05;7.50;99.90
38568;DHT22;24338;48.280;10.970;2023-05-02T02:46:47;7.50;99.90
38568;DHT22;24338;48.280;10.970;2023-05-02T02:49:48;7.50;99.90
38568;DHT22;24338;48.280;10.970;2023-05-02T02:52:21;7.50;99.90
38568;DHT22;24338;48.280;10.970;2023-05-02T02:54:58;7.60;99.90
38568;DHT22;24338;48.280;10.970;2023-05-02T02:57:34;7.50;99.90
38568;DHT22;24338;48.280;10.970;2023-05-02T03:00:19;7.50;99.90
38568;DHT22;24338;48.280;10.970;2023-05-02T03:02:47;7.50;99.90
38568;DHT22;24338;48.280;10.970;2023-05-02T03:05:17;7.50;99.90
38568;DHT22;24338;48.280;10.970;2023-05-02T03:07:47;7.50;99.90
38568;DHT22;24338;48.280;10.970;2023-05-02T03:10:16;7.50;99.90
38568;DHT22;24338;48.280;10.970;2023-05-02T03:12:43;7.40;99.90
38568;DHT22;24338;48.280;10.970;2023-05-02T03:18:02;7.40;99.90
38568;DHT22;24338;48.280;10.970;2023-05-02T03:20:29;7.40;99.90
38568;DHT22;24338;48.280;10.970;2023-05-02T03:22:56;7.40;99.90
38568;DHT22;24338;48.280;10.970;2023-05-02T03:25:25;7.40;99.90
38568;DHT22;24338;48.280;10.970;2023-05-02T03:27:52;7.40;99.90
38568;DHT22;24338;48.280;10.970;2023-05-02T03:30:22;7.40;99.90
38568;DHT22;24338;48.280;10.970;2023-05-02T03:32:48;7.40;99.90
38568;DHT22;24338;48.280;10.970;2023-05-02T03:35:19;7.40;99.90
38568;DHT22;24338;48.280;10.970;2023-05-02T03:37:46;7.40;99.90
38568;DHT22;24338;48.280;10.970;2023-05-02T03:40:12;7.40;99.90
38568;DHT22;24338;48.280;10.970;2023-05-02T03:42:41;7.40;99.90
38568;DHT22;24338;48.280;10.970;2023-05-02T03:45:10;7.40;99.90
38568;DHT22;24338;48.280;10.970;2023-05-02T03:47:37;7.40;99.90
38568;DHT22;24338;48.280;10.970;2023-05-02T03:50:04;7.40;99.90
38568;DHT22;24338;48.280;10.970;2023-05-02T03:52:32;7.40;99.90
38568;DHT22;24338;48.280;10.970;2023-05-02T03:55:00;7.40;99.90
38568;DHT22;24338;48.280;10.970;2023-05-02T03:57:30;7.40;99.90
38568;DHT22;24338;48.280;10.970;2023-05-02T03:59:57;7.40;99.90
38568;DHT22;24338;48.280;10.970;2023-05-02T04:02:24;7.40;99.90
38568;DHT22;24338;48.280;10.970;2023-05-02T04:04:51;7.40;99.90
38568;DHT22;24338;48.280;10.970;2023-05-02T04:07:18;7.40;99.90
38568;DHT22;24338;48.280;10.970;2023-05-02T04:09:45;7.40;99.90
38568;DHT22;24338;48.280;10.970;2023-05-02T04:12:14;7.40;99.90
38568;DHT22;24338;48.280;10.970;2023-05-02T04:14:41;7.40;99.90
38568;DHT22;24338;48.280;10.970;2023-05-02T04:17:08;7.40;99.90
38568;DHT22;24338;48.280;10.970;2023-05-02T04:19:37;7.40;99.90
38568;DHT22;24338;48.280;10.970;2023-05-02T04:22:04;7.40;99.90
38568;DHT22;24338;48.280;10.970;2023-05-02T04:24:31;7.50;99.90
38568;DHT22;24338;48.280;10.970;2023-05-02T04:26:57;7.50;99.90
38568;DHT22;24338;48.280;10.970;2023-05-02T04:29:27;7.50;99.90
38568;DHT22;24338;48.280;10.970;2023-05-02T04:31:54;7.50;99.90
38568;DHT22;24338;48.280;10.970;2023-05-02T04:34:20;7.50;99.90
38568;DHT22;24338;48.280;10.970;2023-05-02T04:36:47;7.60;99.90
38568;DHT22;24338;48.280;10.970;2023-05-02T04:39:14;7.60;99.90
38568;DHT22;24338;48.280;10.970;2023-05-02T04:41:41;7.70;99.90
38568;DHT22;24338;48.280;10.970;2023-05-02T04:44:18;7.70;99.90
38568;DHT22;24338;48.280;10.970;2023-05-02T04:46:48;7.80;99.90
38568;DHT22;24338;48.280;10.970;2023-05-02T04:49:14;7.80;99.90
38568;DHT22;24338;48.280;10.970;2023-05-02T04:51:42;7.80;99.90
38568;DHT22;24338;48.280;10.970;2023-05-02T04:54:10;7.80;99.90
38568;DHT22;24338;48.280;10.970;2023-05-02T04:56:37;7.80;99.90
38568;DHT22;24338;48.280;10.970;2023-05-02T04:59:05;7.90;99.90
38568;DHT22;24338;48.280;10.970;2023-05-02T05:01:32;7.90;99.90
38568;DHT22;24338;48.280;10.970;2023-05-02T05:03:58;7.90;99.90
38568;DHT22;24338;48.280;10.970;2023-05-02T05:06:25;8.00;99.90
38568;DHT22;24338;48.280;10.970;2023-05-02T05:08:52;8.00;99.90
38568;DHT22;24338;48.280;10.970;2023-05-02T05:11:19;8.10;99.90
38568;DHT22;24338;48.280;10.970;2023-05-02T05:13:46;8.10;99.90
38568;DHT22;24338;48.280;10.970;2023-05-02T05:16:13;8.10;99.90
38568;DHT22;24338;48.280;10.970;2023-05-02T05:18:40;8.10;99.90
38568;DHT22;24338;48.280;10.970;2023-05-02T05:21:07;8.20;99.90
38568;DHT22;24338;48.280;10.970;2023-05-02T05:23:35;8.30;99.90
38568;DHT22;24338;48.280;10.970;2023-05-02T05:26:13;8.30;99.90
38568;DHT22;24338;48.280;10.970;2023-05-02T05:28:41;8.30;99.90
38568;DHT22;24338;48.280;10.970;2023-05-02T05:31:11;8.40;99.90
38568;DHT22;24338;48.280;10.970;2023-05-02T05:33:42;8.40;99.90
38568;DHT22;24338;48.280;10.970;2023-05-02T05:36:11;8.60;99.90
38568;DHT22;24338;48.280;10.970;2023-05-02T05:38:38;8.60;99.90
38568;DHT22;24338;48.280;10.970;2023-05-02T05:41:05;8.60;99.90
38568;DHT22;24338;48.280;10.970;2023-05-02T05:43:33;8.70;99.90
38568;DHT22;24338;48.280;10.970;2023-05-02T05:46:03;8.80;99.90
38568;DHT22;24338;48.280;10.970;2023-05-02T05:48:30;8.80;99.90
38568;DHT22;24338;48.280;10.970;2023-05-02T05:50:57;8.90;99.90
38568;DHT22;24338;48.280;10.970;2023-05-02T05:53:23;8.90;99.90
38568;DHT22;24338;48.280;10.970;2023-05-02T05:55:50;9.00;99.90
38568;DHT22;24338;48.280;10.970;2023-05-02T05:58:17;9.10;99.90
38568;DHT22;24338;48.280;10.970;2023-05-02T06:00:44;9.10;99.90
38568;DHT22;24338;48.280;10.970;2023-05-02T06:03:11;9.30;99.90
38568;DHT22;24338;48.280;10.970;2023-05-02T06:05:38;9.40;99.90
38568;DHT22;24338;48.280;10.970;2023-05-02T06:08:05;9.50;99.90
38568;DHT22;24338;48.280;10.970;2023-05-02T06:10:32;9.60;99.90
38568;DHT22;24338;48.280;10.970;2023-05-02T06:12:58;9.70;99.90
38568;DHT22;24338;48.280;10.970;2023-05-02T06:15:25;9.70;99.90
38568;DHT22;24338;48.280;10.970;2023-05-02T06:17:52;9.70;99.90
38568;DHT22;24338;48.280;10.970;2023-05-02T06:20:19;9.80;99.90
38568;DHT22;24338;48.280;10.970;2023-05-02T06:22:46;9.80;99.90
38568;DHT22;24338;48.280;10.970;2023-05-02T06:25:13;9.90;99.90
38568;DHT22;24338;48.280;10.970;2023-05-02T06:30:08;10.10;99.90
38568;DHT22;24338;48.280;10.970;2023-05-02T06:32:35;10.10;99.90
38568;DHT22;24338;48.280;10.970;2023-05-02T06:35:02;10.20;99.90
38568;DHT22;24338;48.280;10.970;2023-05-02T06:37:32;10.20;99.90
38568;DHT22;24338;48.280;10.970;2023-05-02T06:40:00;10.30;99.90
38568;DHT22;24338;48.280;10.970;2023-05-02T06:42:28;10.30;99.90
38568;DHT22;24338;48.280;10.970;2023-05-02T06:44:55;10.40;99.90
38568;DHT22;24338;48.280;10.970;2023-05-02T06:47:22;10.40;99.90
38568;DHT22;24338;48.280;10.970;2023-05-02T06:49:53;10.50;99.90
38568;DHT22;24338;48.280;10.970;2023-05-02T06:52:19;10.50;99.90
38568;DHT22;24338;48.280;10.970;2023-05-02T06:54:46;10.50;99.90
38568;DHT22;24338;48.280;10.970;2023-05-02T06:57:13;10.50;99.90
38568;DHT22;24338;48.280;10.970;2023-05-02T06:59:41;10.60;99.90
38568;DHT22;24338;48.280;10.970;2023-05-02T07:02:08;10.70;99.90
38568;DHT22;24338;48.280;10.970;2023-05-02T07:04:35;10.70;99.90
38568;DHT22;24338;48.280;10.970;2023-05-02T07:07:02;10.80;99.90
38568;DHT22;24338;48.280;10.970;2023-05-02T07:09:45;10.80;99.90
38568;DHT22;24338;48.280;10.970;2023-05-02T07:12:14;10.90;99.90
38568;DHT22;24338;48.280;10.970;2023-05-02T07:14:41;11.00;99.90
38568;DHT22;24338;48.280;10.970;2023-05-02T07:17:08;11.00;99.90
38568;DHT22;24338;48.280;10.970;2023-05-02T07:19:35;11.00;99.90
38568;DHT22;24338;48.280;10.970;2023-05-02T07:22:02;11.10;99.90
38568;DHT22;24338;48.280;10.970;2023-05-02T07:24:29;11.10;99.90
38568;DHT22;24338;48.280;10.970;2023-05-02T07:26:56;11.20;99.90
38568;DHT22;24338;48.280;10.970;2023-05-02T07:29:23;11.20;99.90
38568;DHT22;24338;48.280;10.970;2023-05-02T07:31:50;11.30;99.90
38568;DHT22;24338;48.280;10.970;2023-05-02T07:34:17;11.50;99.90
38568;DHT22;24338;48.280;10.970;2023-05-02T07:36:44;11.60;99.90
38568;DHT22;24338;48.280;10.970;2023-05-02T07:39:10;11.60;99.90
38568;DHT22;24338;48.280;10.970;2023-05-02T07:41:37;11.70;99.90
38568;DHT22;24338;48.280;10.970;2023-05-02T07:44:04;11.70;99.90
38568;DHT22;24338;48.280;10.970;2023-05-02T07:46:31;11.80;99.90
38568;DHT22;24338;48.280;10.970;2023-05-02T07:48:58;11.90;99.90
38568;DHT22;24338;48.280;10.970;2023-05-02T07:51:25;12.10;99.90
38568;DHT22;24338;48.280;10.970;2023-05-02T07:53:52;12.20;99.90
38568;DHT22;24338;48.280;10.970;2023-05-02T07:56:21;12.30;99.90
38568;DHT22;24338;48.280;10.970;2023-05-02T07:58:47;12.30;99.90
38568;DHT22;24338;48.280;10.970;2023-05-02T08:01:15;12.40;99.90
38568;DHT22;24338;48.280;10.970;2023-05-02T08:03:44;12.40;99.90
38568;DHT22;24338;48.280;10.970;2023-05-02T08:06:11;12.50;99.90
38568;DHT22;24338;48.280;10.970;2023-05-02T08:08:38;12.50;99.90
38568;DHT22;24338;48.280;10.970;2023-05-02T08:11:05;12.60;99.90
38568;DHT22;24338;48.280;10.970;2023-05-02T08:13:36;12.80;99.90
38568;DHT22;24338;48.280;10.970;2023-05-02T08:16:04;12.80;99.90
38568;DHT22;24338;48.280;10.970;2023-05-02T08:18:39;13.00;99.90
38568;DHT22;24338;48.280;10.970;2023-05-02T08:21:14;13.10;99.90
38568;DHT22;24338;48.280;10.970;2023-05-02T08:23:41;13.00;99.90
38568;DHT22;24338;48.280;10.970;2023-05-02T08:26:08;13.10;99.90
38568;DHT22;24338;48.280;10.970;2023-05-02T08:28:35;13.20;99.90
38568;DHT22;24338;48.280;10.970;2023-05-02T08:31:02;13.40;99.90
38568;DHT22;24338;48.280;10.970;2023-05-02T08:33:29;13.60;99.90
38568;DHT22;24338;48.280;10.970;2023-05-02T08:35:57;13.80;99.90
38568;DHT22;24338;48.280;10.970;2023-05-02T08:38:24;13.70;99.90
38568;DHT22;24338;48.280;10.970;2023-05-02T08:40:50;13.80;99.90
38568;DHT22;24338;48.280;10.970;2023-05-02T08:43:17;13.60;99.90
38568;DHT22;24338;48.280;10.970;2023-05-02T08:45:44;13.70;99.90
38568;DHT22;24338;48.280;10.970;2023-05-02T08:48:12;13.50;99.90
38568;DHT22;24338;48.280;10.970;2023-05-02T08:50:42;13.40;99.90
38568;DHT22;24338;48.280;10.970;2023-05-02T08:53:11;13.40;99.90
38568;DHT22;24338;48.280;10.970;2023-05-02T08:55:40;13.30;99.90
38568;DHT22;24338;48.280;10.970;2023-05-02T08:58:09;13.40;99.90
38568;DHT22;24338;48.280;10.970;2023-05-02T09:00:38;13.30;99.90
38568;DHT22;24338;48.280;10.970;2023-05-02T09:03:50;13.40;99.90
38568;DHT22;24338;48.280;10.970;2023-05-02T09:06:07;13.40;99.90
38568;DHT22;24338;48.280;10.970;2023-05-02T09:08:58;13.60;99.90
38568;DHT22;24338;48.280;10.970;2023-05-02T09:11:39;13.50;99.90
38568;DHT22;24338;48.280;10.970;2023-05-02T09:14:23;13.50;99.90
38568;DHT22;24338;48.280;10.970;2023-05-02T09:16:58;13.60;99.90
38568;DHT22;24338;48.280;10.970;2023-05-02T09:19:30;13.90;99.90
38568;DHT22;24338;48.280;10.970;2023-05-02T09:22:00;14.00;99.90
38568;DHT22;24338;48.280;10.970;2023-05-02T09:24:27;14.00;99.90
38568;DHT22;24338;48.280;10.970;2023-05-02T09:26:57;14.00;99.90
38568;DHT22;24338;48.280;10.970;2023-05-02T09:29:26;14.00;99.90
38568;DHT22;24338;48.280;10.970;2023-05-02T09:31:54;14.10;99.90
38568;DHT22;24338;48.280;10.970;2023-05-02T09:34:22;14.10;99.90
38568;DHT22;24338;48.280;10.970;2023-05-02T09:36:53;14.30;99.90
38568;DHT22;24338;48.280;10.970;2023-05-02T09:39:27;14.40;99.90
38568;DHT22;24338;48.280;10.970;2023-05-02T09:41:58;14.30;99.90
38568;DHT22;24338;48.280;10.970;2023-05-02T09:44:36;14.40;99.90
38568;DHT22;24338;48.280;10.970;2023-05-02T09:47:04;14.20;99.90
38568;DHT22;24338;48.280;10.970;2023-05-02T09:49:45;14.50;99.90
38568;DHT22;24338;48.280;10.970;2023-05-02T09:52:17;14.60;99.90
38568;DHT22;24338;48.280;10.970;2023-05-02T09:54:44;14.80;99.90
38568;DHT22;24338;48.280;10.970;2023-05-02T09:57:16;14.90;99.90
38568;DHT22;24338;48.280;10.970;2023-05-02T09:59:56;15.10;99.90
38568;DHT22;24338;48.280;10.970;2023-05-02T10:02:30;14.90;99.90
38568;DHT22;24338;48.280;10.970;2023-05-02T10:05:06;15.00;99.90
38568;DHT22;24338;48.280;10.970;2023-05-02T10:07:46;14.80;99.90
38568;DHT22;24338;48.280;10.970;2023-05-02T10:10:16;14.60;99.90
38568;DHT22;24338;48.280;10.970;2023-05-02T10:13:02;14.60;99.90
38568;DHT22;24338;48.280;10.970;2023-05-02T10:15:31;14.70;99.90
38568;DHT22;24338;48.280;10.970;2023-05-02T10:18:00;14.70;99.90
38568;DHT22;24338;48.280;10.970;2023-05-02T10:20:42;14.70;99.90
38568;DHT22;24338;48.280;10.970;2023-05-02T10:23:09;14.80;99.90
38568;DHT22;24338;48.280;10.970;2023-05-02T10:25:38;14.80;99.90
38568;DHT22;24338;48.280;10.970;2023-05-02T10:28:05;14.60;99.90
38568;DHT22;24338;48.280;10.970;2023-05-02T10:30:32;14.60;99.90
38568;DHT22;24338;48.280;10.970;2023-05-02T10:33:02;14.50;99.90
38568;DHT22;24338;48.280;10.970;2023-05-02T10:35:29;14.50;99.90
38568;DHT22;24338;48.280;10.970;2023-05-02T10:37:59;14.40;99.90
38568;DHT22;24338;48.280;10.970;2023-05-02T10:40:26;14.30;99.90
38568;DHT22;24338;48.280;10.970;2023-05-02T10:42:53;14.30;99.90
38568;DHT22;24338;48.280;10.970;2023-05-02T10:45:33;14.30;99.90
38568;DHT22;24338;48.280;10.970;2023-05-02T10:48:21;14.20;99.90
38568;DHT22;24338;48.280;10.970;2023-05-02T10:50:58;14.20;99.90
38568;DHT22;24338;48.280;10.970;2023-05-02T10:53:30;14.40;99.90
38568;DHT22;24338;48.280;10.970;2023-05-02T10:56:07;14.60;99.90
38568;DHT22;24338;48.280;10.970;2023-05-02T10:58:36;14.70;99.90
38568;DHT22;24338;48.280;10.970;2023-05-02T11:06:27;14.90;99.90
38568;DHT22;24338;48.280;10.970;2023-05-02T11:11:44;14.60;99.90
38568;DHT22;24338;48.280;10.970;2023-05-02T11:14:41;14.70;99.90
38568;DHT22;24338;48.280;10.970;2023-05-02T11:24:45;15.20;99.90
38568;DHT22;24338;48.280;10.970;2023-05-02T11:30:05;15.50;99.90
38568;DHT22;24338;48.280;10.970;2023-05-02T11:35:22;15.90;99.90
38568;DHT22;24338;48.280;10.970;2023-05-02T11:38:02;16.10;99.90
38568;DHT22;24338;48.280;10.970;2023-05-02T11:40:30;16.50;99.90
38568;DHT22;24338;48.280;10.970;2023-05-02T11:42:59;16.80;99.90
38568;DHT22;24338;48.280;10.970;2023-05-02T11:45:36;16.70;99.90
38568;DHT22;24338;48.280;10.970;2023-05-02T11:48:05;17.00;99.90
38568;DHT22;24338;48.280;10.970;2023-05-02T11:50:38;16.70;99.90
38568;DHT22;24338;48.280;10.970;2023-05-02T11:53:33;16.60;99.90
38568;DHT22;24338;48.280;10.970;2023-05-02T11:56:05;16.70;99.90
38568;DHT22;24338;48.280;10.970;2023-05-02T11:58:32;16.90;99.90
38568;DHT22;24338;48.280;10.970;2023-05-02T12:01:15;16.80;99.90
38568;DHT22;24338;48.280;10.970;2023-05-02T12:03:43;16.90;99.90
38568;DHT22;24338;48.280;10.970;2023-05-02T12:06:15;16.90;99.90
38568;DHT22;24338;48.280;10.970;2023-05-02T12:08:45;17.20;99.90
38568;DHT22;24338;48.280;10.970;2023-05-02T12:11:14;17.20;99.90
38568;DHT22;24338;48.280;10.970;2023-05-02T12:13:45;17.10;99.90
38568;DHT22;24338;48.280;10.970;2023-05-02T12:16:14;16.90;99.90
38568;DHT22;24338;48.280;10.970;2023-05-02T12:18:41;16.80;99.90
38568;DHT22;24338;48.280;10.970;2023-05-02T12:21:08;16.90;99.90
38568;DHT22;24338;48.280;10.970;2023-05-02T12:23:35;17.10;99.90
38568;DHT22;24338;48.280;10.970;2023-05-02T12:26:20;17.10;99.90
38568;DHT22;24338;48.280;10.970;2023-05-02T12:28:49;17.00;99.90
38568;DHT22;24338;48.280;10.970;2023-05-02T12:31:16;16.80;99.90
38568;DHT22;24338;48.280;10.970;2023-05-02T12:33:44;16.60;99.90
38568;DHT22;24338;48.280;10.970;2023-05-02T12:36:11;16.20;99.90
38568;DHT22;24338;48.280;10.970;2023-05-02T12:38:38;16.10;99.90
38568;DHT22;24338;48.280;10.970;2023-05-02T12:41:05;16.20;99.90
38568;DHT22;24338;48.280;10.970;2023-05-02T12:44:02;16.30;99.90
38568;DHT22;24338;48.280;10.970;2023-05-02T12:46:30;16.30;99.90
38568;DHT22;24338;48.280;10.970;2023-05-02T12:49:05;16.40;99.90
38568;DHT22;24338;48.280;10.970;2023-05-02T12:51:34;16.70;99.90
38568;DHT22;24338;48.280;10.970;2023-05-02T12:54:03;17.10;99.90
38568;DHT22;24338;48.280;10.970;2023-05-02T12:56:38;17.60;99.90
38568;DHT22;24338;48.280;10.970;2023-05-02T12:59:05;18.00;99.90
38568;DHT22;24338;48.280;10.970;2023-05-02T13:01:33;18.10;99.90
38568;DHT22;24338;48.280;10.970;2023-05-02T13:04:01;18.40;99.90
38568;DHT22;24338;48.280;10.970;2023-05-02T13:06:28;18.70;99.90
38568;DHT22;24338;48.280;10.970;2023-05-02T13:08:55;19.00;99.90
38568;DHT22;24338;48.280;10.970;2023-05-02T13:11:21;18.80;96.60
38568;DHT22;24338;48.280;10.970;2023-05-02T13:13:52;18.70;98.00
38568;DHT22;24338;48.280;10.970;2023-05-02T13:16:19;18.90;99.40
38568;DHT22;24338;48.280;10.970;2023-05-02T13:18:47;18.90;98.20
38568;DHT22;24338;48.280;10.970;2023-05-02T13:21:14;18.60;98.40
38568;DHT22;24338;48.280;10.970;2023-05-02T13:23:41;18.30;99.50
38568;DHT22;24338;48.280;10.970;2023-05-02T13:26:10;17.90;97.40
38568;DHT22;24338;48.280;10.970;2023-05-02T13:28:39;17.50;97.80
38568;DHT22;24338;48.280;10.970;2023-05-02T13:31:06;17.20;99.90
38568;DHT22;24338;48.280;10.970;2023-05-02T13:33:33;16.90;99.90
38568;DHT22;24338;48.280;10.970;2023-05-02T13:36:00;16.80;99.90
38568;DHT22;24338;48.280;10.970;2023-05-02T13:38:30;16.50;99.90
38568;DHT22;24338;48.280;10.970;2023-05-02T13:40:57;16.60;99.90
38568;DHT22;24338;48.280;10.970;2023-05-02T13:43:23;16.70;99.90
38568;DHT22;24338;48.280;10.970;2023-05-02T13:45:50;16.80;99.90
38568;DHT22;24338;48.280;10.970;2023-05-02T13:48:17;16.80;99.90
38568;DHT22;24338;48.280;10.970;2023-05-02T13:50:44;16.80;99.90
38568;DHT22;24338;48.280;10.970;2023-05-02T13:53:11;17.00;99.90
38568;DHT22;24338;48.280;10.970;2023-05-02T13:55:38;17.10;99.90
38568;DHT22;24338;48.280;10.970;2023-05-02T13:58:05;17.60;99.90
38568;DHT22;24338;48.280;10.970;2023-05-02T14:00:32;18.20;99.90
38568;DHT22;24338;48.280;10.970;2023-05-02T14:03:03;18.50;97.90
38568;DHT22;24338;48.280;10.970;2023-05-02T14:05:30;18.30;95.70
38568;DHT22;24338;48.280;10.970;2023-05-02T14:07:57;18.10;96.70
38568;DHT22;24338;48.280;10.970;2023-05-02T14:10:24;18.00;99.90
38568;DHT22;24338;48.280;10.970;2023-05-02T14:12:54;17.80;99.90
38568;DHT22;24338;48.280;10.970;2023-05-02T14:15:21;17.40;99.90
38568;DHT22;24338;48.280;10.970;2023-05-02T14:17:51;17.30;98.80
38568;DHT22;24338;48.280;10.970;2023-05-02T14:20:18;17.30;99.90
38568;DHT22;24338;48.280;10.970;2023-05-02T14:22:47;17.20;99.90
38568;DHT22;24338;48.280;10.970;2023-05-02T14:25:14;17.20;99.90
38568;DHT22;24338;48.280;10.970;2023-05-02T14:27:41;17.00;99.90
38568;DHT22;24338;48.280;10.970;2023-05-02T14:30:08;17.00;99.90
38568;DHT22;24338;48.280;10.970;2023-05-02T14:32:35;16.90;99.90
38568;DHT22;24338;48.280;10.970;2023-05-02T14:35:02;16.80;99.90
38568;DHT22;24338;48.280;10.970;2023-05-02T14:37:29;16.60;99.90
38568;DHT22;24338;48.280;10.970;2023-05-02T14:39:56;16.70;99.90
38568;DHT22;24338;48.280;10.970;2023-05-02T14:42:25;16.90;99.90
38568;DHT22;24338;48.280;10.970;2023-05-02T14:44:52;17.30;99.90
38568;DHT22;24338;48.280;10.970;2023-05-02T14:47:19;17.50;99.90
38568;DHT22;24338;48.280;10.970;2023-05-02T14:49:46;17.50;99.90
38568;DHT22;24338;48.280;10.970;2023-05-02T14:52:13;17.30;99.90
38568;DHT22;24338;48.280;10.970;2023-05-02T14:54:40;17.20;99.90
38568;DHT22;24338;48.280;10.970;2023-05-02T14:57:06;16.90;99.90
38568;DHT22;24338;48.280;10.970;2023-05-02T14:59:34;16.50;99.90
38568;DHT22;24338;48.280;10.970;2023-05-02T15:02:02;16.20;99.90
38568;DHT22;24338;48.280;10.970;2023-05-02T15:04:29;15.60;99.90
38568;DHT22;24338;48.280;10.970;2023-05-02T15:06:56;15.30;99.90
38568;DHT22;24338;48.280;10.970;2023-05-02T15:09:24;15.20;99.90
38568;DHT22;24338;48.280;10.970;2023-05-02T15:11:52;14.60;99.90
38568;DHT22;24338;48.280;10.970;2023-05-02T15:14:19;14.30;99.90
38568;DHT22;24338;48.280;10.970;2023-05-02T15:16:46;14.30;99.90
38568;DHT22;24338;48.280;10.970;2023-05-02T15:19:13;14.10;99.90
38568;DHT22;24338;48.280;10.970;2023-05-02T15:21:39;13.80;99.90
38568;DHT22;24338;48.280;10.970;2023-05-02T15:24:07;13.70;99.90
38568;DHT22;24338;48.280;10.970;2023-05-02T15:26:36;13.30;99.90
38568;DHT22;24338;48.280;10.970;2023-05-02T15:29:06;13.10;99.90
38568;DHT22;24338;48.280;10.970;2023-05-02T15:31:33;12.80;99.90
38568;DHT22;24338;48.280;10.970;2023-05-02T15:34:00;12.60;99.90
38568;DHT22;24338;48.280;10.970;2023-05-02T15:36:27;12.40;99.90
38568;DHT22;24338;48.280;10.970;2023-05-02T15:38:56;12.10;99.90
38568;DHT22;24338;48.280;10.970;2023-05-02T15:41:24;12.10;99.90
38568;DHT22;24338;48.280;10.970;2023-05-02T15:43:54;12.20;99.90
38568;DHT22;24338;48.280;10.970;2023-05-02T15:46:21;12.10;99.90
38568;DHT22;24338;48.280;10.970;2023-05-02T15:48:48;12.20;99.90
38568;DHT22;24338;48.280;10.970;2023-05-02T15:51:18;12.10;99.90
38568;DHT22;24338;48.280;10.970;2023-05-02T15:53:45;12.00;99.90
38568;DHT22;24338;48.280;10.970;2023-05-02T15:56:15;12.00;99.90
38568;DHT22;24338;48.280;10.970;2023-05-02T15:58:42;12.10;99.90
38568;DHT22;24338;48.280;10.970;2023-05-02T16:01:09;12.20;99.90
38568;DHT22;24338;48.280;10.970;2023-05-02T16:03:36;12.30;99.90
38568;DHT22;24338;48.280;10.970;2023-05-02T16:06:03;12.30;99.90
38568;DHT22;24338;48.280;10.970;2023-05-02T16:08:32;12.40;99.90
38568;DHT22;24338;48.280;10.970;2023-05-02T16:10:58;12.50;99.90
38568;DHT22;24338;48.280;10.970;2023-05-02T16:13:27;12.60;99.90
38568;DHT22;24338;48.280;10.970;2023-05-02T16:15:54;12.70;99.90
38568;DHT22;24338;48.280;10.970;2023-05-02T16:18:21;12.70;99.90